createdAt,value
2018-03-11T00:01:04.884Z,23.17
2018-03-11T00:03:40.331Z,23.87
2018-03-11T00:06:14.979Z,21.00
2018-03-11T00:21:39.862Z,22.60
2018-03-11T00:24:12.995Z,28.47
2018-03-11T00:26:48.049Z,31.27
2018-03-11T00:29:18.494Z,30.13
2018-03-11T00:31:48.651Z,32.27
2018-03-11T00:34:19.201Z,25.33
2018-03-11T00:36:48.799Z,32.60
2018-03-11T00:39:19.189Z,24.87
2018-03-11T00:42:12.820Z,24.97
2018-03-11T00:44:43.266Z,21.87
2018-03-11T00:47:13.658Z,24.67
2018-03-11T00:49:43.378Z,25.93
2018-03-11T00:52:13.803Z,25.07
2018-03-11T00:54:43.311Z,31.67
2018-03-11T00:57:16.208Z,27.47
2018-03-11T00:59:48.027Z,24.77
2018-03-11T01:02:21.418Z,23.67
2018-03-11T01:04:51.483Z,23.97
2018-03-11T01:07:21.415Z,22.47
2018-03-11T01:09:50.935Z,26.47
2018-03-11T01:12:21.738Z,25.57
2018-03-11T01:14:57.021Z,22.77
2018-03-11T01:17:32.507Z,28.47
2018-03-11T01:20:08.923Z,22.57
2018-03-11T01:22:42.162Z,23.43
2018-03-11T01:25:18.946Z,27.37
2018-03-11T01:27:51.482Z,25.03
2018-03-11T01:30:21.025Z,26.33
2018-03-11T01:32:51.284Z,18.97
2018-03-11T01:35:22.151Z,21.90
2018-03-11T01:37:54.959Z,23.10
2018-03-11T01:40:25.441Z,20.50
2018-03-11T01:42:55.275Z,21.93
2018-03-11T01:45:28.232Z,23.03
2018-03-11T01:47:57.758Z,18.90
2018-03-11T01:50:27.262Z,24.57
2018-03-11T01:53:02.463Z,30.50
2018-03-11T01:55:32.711Z,21.73
2018-03-11T01:58:04.918Z,17.20
2018-03-11T02:00:34.840Z,18.90
2018-03-11T02:03:05.810Z,18.83
2018-03-11T02:05:35.377Z,19.50
2018-03-11T02:08:10.083Z,14.93
2018-03-11T02:10:46.382Z,15.17
2018-03-11T02:13:18.010Z,16.10
2018-03-11T02:15:47.507Z,15.07
2018-03-11T02:18:17.326Z,20.90
2018-03-11T02:20:48.169Z,15.53
2018-03-11T02:23:21.997Z,17.80
2018-03-11T02:25:52.553Z,15.20
2018-03-11T02:28:28.053Z,19.00
2018-03-11T02:30:59.694Z,18.53
2018-03-11T02:33:30.970Z,20.13
2018-03-11T02:36:05.260Z,20.67
2018-03-11T02:38:35.928Z,14.80
2018-03-11T02:41:08.703Z,23.10
2018-03-11T02:43:39.566Z,11.93
2018-03-11T02:46:09.552Z,19.43
2018-03-11T02:48:44.139Z,19.97
2018-03-11T02:51:17.071Z,16.87
2018-03-11T02:53:53.464Z,18.10
2018-03-11T02:56:42.115Z,14.90
2018-03-11T02:59:16.087Z,21.77
2018-03-11T03:01:49.926Z,13.60
2018-03-11T03:04:22.219Z,17.67
2018-03-11T03:06:52.416Z,14.47
2018-03-11T03:09:34.060Z,16.13
2018-03-11T03:12:06.377Z,14.83
2018-03-11T03:14:49.915Z,13.57
2018-03-11T03:17:20.619Z,13.27
2018-03-11T03:19:51.604Z,16.57
2018-03-11T03:22:24.101Z,18.63
2018-03-11T03:24:54.546Z,15.93
2018-03-11T03:27:28.773Z,13.17
2018-03-11T03:30:20.591Z,17.13
2018-03-11T03:32:50.104Z,11.07
2018-03-11T03:35:19.603Z,17.40
2018-03-11T03:37:52.329Z,13.93
2018-03-11T03:40:31.528Z,14.73
2018-03-11T03:43:01.039Z,16.87
2018-03-11T03:45:31.841Z,15.03
2018-03-11T03:48:04.566Z,15.13
2018-03-11T03:50:39.379Z,12.53
2018-03-11T03:53:10.152Z,17.07
2018-03-11T03:55:43.911Z,15.77
2018-03-11T03:58:19.269Z,12.93
2018-03-11T04:00:52.136Z,14.73
2018-03-11T04:03:24.556Z,20.13
2018-03-11T04:05:54.062Z,15.97
2018-03-11T04:08:29.669Z,20.30
2018-03-11T04:11:00.405Z,12.03
2018-03-11T04:13:32.306Z,18.33
2018-03-11T04:16:01.801Z,14.53
2018-03-11T04:18:33.958Z,14.10
2018-03-11T04:21:03.981Z,17.50
2018-03-11T04:23:34.710Z,17.23
2018-03-11T04:26:11.346Z,17.43
2018-03-11T04:31:43.589Z,19.17
2018-03-11T04:34:17.986Z,18.07
2018-03-11T04:36:53.538Z,16.17
2018-03-11T04:39:23.170Z,15.37
2018-03-11T04:42:20.403Z,17.80
2018-03-11T04:44:50.863Z,15.10
2018-03-11T04:47:20.416Z,16.10
2018-03-11T04:49:49.912Z,15.70
2018-03-11T04:52:19.943Z,13.53
2018-03-11T04:54:49.473Z,13.87
2018-03-11T04:57:20.866Z,15.67
2018-03-11T04:59:51.892Z,14.70
2018-03-11T05:02:22.551Z,15.90
2018-03-11T05:04:53.500Z,15.63
2018-03-11T05:07:22.988Z,12.13
2018-03-11T05:09:53.315Z,12.43
2018-03-11T05:12:22.806Z,11.17
2018-03-11T05:14:53.320Z,12.10
2018-03-11T05:17:22.822Z,13.53
2018-03-11T05:19:59.942Z,13.80
2018-03-11T05:22:30.426Z,13.20
2018-03-11T05:25:02.206Z,10.77
2018-03-11T05:27:33.892Z,12.63
2018-03-11T05:30:03.406Z,14.43
2018-03-11T05:32:39.565Z,15.03
2018-03-11T05:35:11.815Z,11.13
2018-03-11T05:37:45.911Z,15.47
2018-03-11T05:40:21.991Z,12.00
2018-03-11T05:45:30.884Z,17.07
2018-03-11T05:48:01.251Z,15.43
2018-03-11T05:50:33.087Z,12.37
2018-03-11T05:53:02.617Z,17.13
2018-03-11T05:55:32.503Z,15.37
2018-03-11T05:58:03.136Z,13.13
2018-03-11T06:00:37.075Z,12.93
2018-03-11T06:03:10.887Z,12.00
2018-03-11T06:05:40.780Z,12.20
2018-03-11T06:08:10.304Z,12.00
2018-03-11T06:10:39.801Z,16.70
2018-03-11T06:13:09.310Z,20.73
2018-03-11T06:15:43.865Z,19.33
2018-03-11T06:20:53.366Z,14.33
2018-03-11T06:23:25.200Z,13.40
2018-03-11T06:26:00.982Z,16.10
2018-03-11T06:28:36.238Z,15.27
2018-03-11T06:34:18.142Z,14.30
2018-03-11T06:36:50.873Z,17.10
2018-03-11T06:39:20.811Z,21.60
2018-03-11T06:41:50.862Z,24.70
2018-03-11T06:44:20.374Z,25.33
2018-03-11T06:46:50.319Z,23.27
2018-03-11T06:49:22.048Z,20.50
2018-03-11T06:51:57.513Z,17.63
2018-03-11T06:54:37.216Z,19.73
2018-03-11T06:57:07.338Z,17.23
2018-03-11T06:59:44.797Z,18.27
2018-03-11T07:02:18.182Z,20.27
2018-03-11T07:04:52.797Z,21.17
2018-03-11T07:07:25.462Z,20.77
2018-03-11T07:10:00.407Z,16.70
2018-03-11T07:12:42.377Z,18.93
2018-03-11T07:15:12.557Z,18.37
2018-03-11T07:17:42.054Z,17.77
2018-03-11T07:20:11.577Z,31.00
2018-03-11T07:22:43.176Z,16.80
2018-03-11T07:25:15.763Z,17.73
2018-03-11T07:27:46.644Z,19.37
2018-03-11T07:30:16.835Z,18.43
2018-03-11T07:32:47.338Z,21.37
2018-03-11T07:35:18.351Z,21.17
2018-03-11T07:37:48.525Z,20.57
2018-03-11T07:40:27.114Z,24.93
2018-03-11T07:43:00.688Z,26.40
2018-03-11T07:45:31.771Z,20.87
2018-03-11T07:51:15.463Z,18.80
2018-03-11T07:53:51.980Z,18.47
2018-03-11T07:56:22.256Z,15.90
2018-03-11T07:58:54.691Z,20.03
2018-03-11T08:01:30.816Z,20.80
2018-03-11T08:04:10.699Z,24.77
2018-03-11T08:06:40.505Z,22.10
2018-03-11T08:09:13.546Z,19.17
2018-03-11T08:11:45.428Z,22.33
2018-03-11T08:14:15.468Z,22.23
2018-03-11T08:16:45.783Z,24.43
2018-03-11T08:19:17.964Z,28.47
2018-03-11T08:21:47.879Z,25.53
2018-03-11T08:24:20.292Z,23.53
2018-03-11T08:26:50.465Z,21.80
2018-03-11T08:29:20.678Z,22.30
2018-03-11T08:34:35.159Z,25.73
2018-03-11T08:37:04.663Z,23.43
2018-03-11T08:39:35.703Z,17.50
2018-03-11T08:42:12.842Z,20.77
2018-03-11T08:44:43.853Z,22.43
2018-03-11T08:47:16.081Z,26.53
2018-03-11T08:49:48.849Z,26.23
2018-03-11T08:52:20.799Z,18.80
2018-03-11T08:54:50.945Z,23.33
2018-03-11T08:57:23.540Z,23.30
2018-03-11T08:59:53.060Z,26.57
2018-03-11T09:02:24.654Z,24.17
2018-03-11T09:04:55.755Z,26.57
2018-03-11T09:07:25.277Z,21.90
2018-03-11T09:09:55.191Z,21.60
2018-03-11T09:12:26.343Z,26.27
2018-03-11T09:14:56.263Z,24.73
2018-03-11T09:17:32.314Z,22.67
2018-03-11T09:20:03.287Z,24.57
2018-03-11T09:22:39.059Z,19.73
2018-03-11T09:25:11.555Z,19.63
2018-03-11T09:27:41.086Z,15.67
2018-03-11T09:30:11.703Z,19.73
2018-03-11T09:32:42.595Z,19.63
2018-03-11T09:35:14.648Z,17.57
2018-03-11T09:37:50.306Z,15.47
2018-03-11T09:40:21.278Z,14.23
2018-03-11T09:42:56.954Z,15.43
2018-03-11T09:45:31.693Z,13.37
2018-03-11T09:48:01.598Z,15.40
2018-03-11T09:50:54.791Z,14.40
2018-03-11T09:53:26.605Z,11.53
2018-03-11T09:56:02.273Z,18.87
2018-03-11T09:58:43.307Z,12.60
2018-03-11T10:01:13.774Z,13.47
2018-03-11T10:03:43.660Z,12.73
2018-03-11T10:06:16.024Z,12.73
2018-03-11T10:08:45.522Z,12.43
2018-03-11T10:11:15.784Z,8.83
2018-03-11T10:13:46.962Z,7.97
2018-03-11T10:16:19.660Z,7.83
2018-03-11T10:18:49.781Z,5.87
2018-03-11T10:21:36.560Z,8.53
2018-03-11T10:24:08.731Z,7.83
2018-03-11T10:26:43.389Z,5.33
2018-03-11T10:29:12.952Z,8.40
2018-03-11T10:31:45.467Z,5.13
2018-03-11T10:34:22.318Z,4.87
2018-03-11T10:39:56.533Z,5.67
2018-03-11T10:42:30.985Z,6.60
2018-03-11T10:45:04.389Z,5.73
2018-03-11T10:47:34.603Z,6.43
2018-03-11T10:50:18.811Z,4.93
2018-03-11T10:52:55.154Z,4.07
2018-03-11T10:55:24.958Z,4.67
2018-03-11T10:57:59.803Z,5.93
2018-03-11T11:03:18.348Z,6.20
2018-03-11T11:09:00.334Z,4.70
2018-03-11T11:11:32.171Z,5.23
2018-03-11T11:14:07.164Z,3.30
2018-03-11T11:16:38.569Z,5.77
2018-03-11T11:19:09.762Z,4.07
2018-03-11T11:21:41.995Z,4.50
2018-03-11T11:24:18.018Z,4.53
2018-03-11T11:26:53.787Z,3.80
2018-03-11T11:32:03.033Z,7.07
2018-03-11T11:34:32.808Z,7.53
2018-03-11T11:37:11.897Z,5.70
2018-03-11T11:39:45.052Z,5.63
2018-03-11T11:42:23.423Z,7.07
2018-03-11T11:44:54.866Z,8.17
2018-03-11T11:47:27.362Z,8.83
2018-03-11T11:50:00.016Z,12.07
2018-03-11T11:52:55.305Z,8.97
2018-03-11T11:55:24.807Z,8.20
2018-03-11T11:57:57.614Z,8.93
2018-03-11T12:00:30.324Z,10.43
2018-03-11T12:03:02.872Z,9.13
2018-03-11T12:05:40.565Z,9.70
2018-03-11T12:17:41.267Z,10.07
2018-03-11T12:20:12.207Z,12.53
2018-03-11T12:22:43.144Z,12.37
2018-03-11T12:25:21.511Z,10.50
2018-03-11T12:27:51.060Z,12.63
2018-03-11T12:30:27.209Z,13.27
2018-03-11T12:33:02.681Z,11.67
2018-03-11T12:35:32.547Z,11.43
2018-03-11T12:38:10.562Z,11.97
2018-03-11T12:40:43.724Z,12.40
2018-03-11T12:43:17.973Z,12.07
2018-03-11T12:48:31.362Z,13.23
2018-03-11T12:51:02.137Z,13.77
2018-03-11T12:53:38.335Z,12.20
2018-03-11T12:56:07.817Z,14.63
2018-03-11T12:58:41.300Z,11.93
2018-03-11T13:01:12.901Z,11.87
2018-03-11T13:03:42.470Z,11.83
2018-03-11T13:06:14.258Z,10.70
2018-03-11T13:08:45.285Z,11.60
2018-03-11T13:11:16.333Z,14.47
2018-03-11T13:13:47.868Z,13.13
2018-03-11T13:16:17.691Z,14.30
2018-03-11T13:18:49.168Z,13.57
2018-03-11T13:21:21.966Z,12.13
2018-03-11T13:23:54.650Z,10.37
2018-03-11T13:26:30.139Z,10.30
2018-03-11T13:29:04.419Z,9.27
2018-03-11T13:31:34.320Z,12.20
2018-03-11T13:34:21.948Z,10.63
2018-03-11T13:36:52.799Z,11.90
2018-03-11T13:39:53.813Z,10.07
2018-03-11T13:42:38.313Z,16.83
2018-03-11T13:45:14.448Z,14.23
2018-03-11T13:50:53.609Z,11.30
2018-03-11T13:53:29.853Z,11.27
2018-03-11T13:56:01.480Z,10.50
2018-03-11T13:58:36.837Z,10.77
2018-03-11T14:01:06.336Z,14.33
2018-03-11T14:03:36.856Z,10.53
2018-03-11T14:06:10.461Z,9.87
2018-03-11T14:08:40.201Z,9.70
2018-03-11T14:11:17.187Z,9.50
2018-03-11T14:13:51.893Z,9.37
2018-03-11T14:16:21.946Z,10.80
2018-03-11T14:18:56.094Z,7.50
2018-03-11T14:21:33.834Z,11.67
2018-03-11T14:24:09.056Z,10.30
2018-03-11T14:26:41.600Z,10.33
2018-03-11T14:29:11.129Z,9.17
2018-03-11T14:31:46.730Z,10.77
2018-03-11T14:34:26.781Z,9.00
2018-03-11T14:37:02.191Z,10.20
2018-03-11T14:39:33.926Z,10.67
2018-03-11T14:42:08.537Z,8.90
2018-03-11T14:44:44.643Z,9.97
2018-03-11T14:47:19.829Z,9.03
2018-03-11T14:49:53.120Z,13.00
2018-03-11T14:52:27.532Z,12.07
2018-03-11T14:58:10.159Z,11.67
2018-03-11T15:00:49.817Z,9.17
2018-03-11T15:03:23.607Z,12.53
2018-03-11T15:06:03.510Z,14.40
2018-03-11T15:08:34.012Z,11.63
2018-03-11T15:11:05.391Z,11.23
2018-03-11T15:13:38.439Z,13.37
2018-03-11T15:16:29.263Z,10.33
2018-03-11T15:19:01.054Z,10.53
2018-03-11T15:21:36.772Z,13.67
2018-03-11T15:24:17.635Z,10.93
2018-03-11T15:27:10.252Z,11.13
2018-03-11T15:29:42.358Z,11.87
2018-03-11T15:32:11.944Z,10.20
2018-03-11T15:34:41.566Z,10.53
2018-03-11T15:37:13.396Z,11.67
2018-03-11T15:39:55.863Z,12.90
2018-03-11T15:45:52.941Z,9.27
2018-03-11T15:48:22.781Z,10.57
2018-03-11T15:50:52.395Z,10.33
2018-03-11T15:53:26.957Z,10.43
2018-03-11T15:55:58.566Z,11.47
2018-03-11T15:58:29.152Z,9.33
2018-03-11T16:00:59.499Z,9.67
2018-03-11T16:03:30.399Z,8.73
2018-03-11T16:06:01.681Z,11.53
2018-03-11T16:08:33.767Z,10.23
2018-03-11T16:11:04.975Z,11.97
2018-03-11T16:13:57.479Z,11.33
2018-03-11T16:16:26.966Z,12.17
2018-03-11T16:18:56.467Z,14.23
2018-03-11T16:21:25.964Z,13.07
2018-03-11T16:23:55.869Z,15.07
2018-03-11T16:26:30.611Z,16.07
2018-03-11T16:29:05.272Z,13.57
2018-03-11T16:31:35.758Z,16.03
2018-03-11T16:34:09.562Z,16.20
2018-03-11T16:36:39.296Z,14.50
2018-03-11T16:39:09.715Z,16.93
2018-03-11T16:41:39.395Z,13.27
2018-03-11T16:44:09.460Z,17.00
2018-03-11T16:46:38.958Z,19.40
2018-03-11T16:49:09.405Z,15.90
2018-03-11T16:51:44.356Z,15.57
2018-03-11T16:54:15.449Z,14.77
2018-03-11T16:56:52.837Z,16.37
2018-03-11T16:59:37.303Z,16.53
2018-03-11T17:02:07.457Z,20.23
2018-03-11T17:04:36.987Z,17.40
2018-03-11T17:07:16.767Z,17.90
2018-03-11T17:09:49.210Z,23.90
2018-03-11T17:12:25.978Z,18.07
2018-03-11T17:14:56.819Z,25.37
2018-03-11T17:17:36.119Z,22.03
2018-03-11T17:20:09.386Z,21.90
2018-03-11T17:22:51.493Z,19.73
2018-03-11T17:25:22.427Z,23.80
2018-03-11T17:27:56.991Z,23.47
2018-03-11T17:30:30.992Z,22.97
2018-03-11T17:33:00.839Z,18.87
2018-03-11T17:35:30.356Z,17.63
2018-03-11T17:37:59.881Z,19.03
2018-03-11T17:40:31.862Z,20.97
2018-03-11T17:43:05.368Z,21.03
2018-03-11T17:45:41.981Z,21.90
2018-03-11T17:48:12.758Z,20.80
2018-03-11T17:50:51.765Z,20.93
2018-03-11T17:53:23.342Z,22.07
2018-03-11T17:55:55.579Z,24.77
2018-03-11T17:58:26.536Z,25.50
2018-03-11T18:10:32.719Z,9.13
2018-03-11T18:13:07.502Z,8.47
2018-03-11T18:15:44.282Z,7.67
2018-03-11T18:18:15.118Z,5.83
2018-03-11T18:20:49.757Z,6.90
2018-03-11T18:23:24.229Z,5.20
2018-03-11T18:25:54.706Z,6.80
2018-03-11T18:28:30.321Z,4.67
2018-03-11T18:31:01.479Z,3.90
2018-03-11T18:33:33.922Z,4.50
2018-03-11T18:36:06.318Z,4.87
2018-03-11T18:38:35.823Z,3.77
2018-03-11T18:41:05.339Z,4.60
2018-03-11T18:43:41.026Z,5.27
2018-03-11T18:46:11.403Z,5.13
2018-03-11T18:48:49.540Z,6.23
2018-03-11T18:51:26.463Z,6.63
2018-03-11T18:54:05.032Z,6.27
2018-03-11T18:56:40.747Z,6.33
2018-03-11T18:59:14.102Z,5.50
2018-03-11T19:08:14.904Z,6.30
2018-03-11T19:10:48.024Z,6.73
2018-03-11T19:13:21.724Z,8.57
2018-03-11T19:22:20.731Z,7.93
2018-03-11T19:24:52.648Z,9.13
2018-03-11T19:27:25.182Z,8.77
2018-03-11T19:29:59.164Z,8.53
2018-03-11T19:32:39.128Z,7.83
2018-03-11T19:35:14.049Z,6.70
2018-03-11T19:37:44.618Z,6.60
2018-03-11T19:40:27.483Z,8.77
2018-03-11T19:42:57.515Z,11.07
2018-03-11T19:45:30.839Z,10.87
2018-03-11T19:48:00.351Z,11.63
2018-03-11T19:50:30.683Z,11.27
2018-03-11T19:53:01.014Z,8.00
2018-03-11T19:55:30.626Z,10.50
2018-03-11T19:58:00.389Z,10.07
2018-03-11T20:00:29.911Z,13.70
2018-03-11T20:02:59.406Z,15.63
2018-03-11T20:05:29.422Z,12.60
2018-03-11T20:07:59.196Z,60.30
2018-03-11T20:10:31.627Z,139.97
2018-03-11T20:13:05.971Z,41.07
2018-03-11T20:15:36.343Z,18.93
2018-03-11T20:18:16.274Z,32.80
2018-03-11T20:20:55.482Z,17.50
2018-03-11T20:23:27.534Z,24.77
2018-03-11T20:26:00.088Z,20.17
2018-03-11T20:28:32.495Z,30.67
2018-03-11T20:31:07.133Z,22.97
2018-03-11T20:33:37.282Z,13.23
2018-03-11T20:36:07.307Z,33.30
2018-03-11T20:38:36.805Z,40.90
2018-03-11T20:41:06.322Z,28.80
2018-03-11T20:43:35.839Z,20.47
2018-03-11T20:46:05.931Z,39.10
2018-03-11T20:48:37.822Z,18.17
2018-03-11T20:51:08.494Z,16.07
2018-03-11T20:53:40.830Z,14.37
2018-03-11T20:56:11.858Z,14.30
2018-03-11T20:58:41.419Z,11.03
2018-03-11T21:01:11.949Z,9.70
2018-03-11T21:03:44.371Z,14.07
2018-03-11T21:06:13.878Z,13.13
2018-03-11T21:08:43.410Z,10.87
2018-03-11T21:11:13.224Z,8.00
2018-03-11T21:13:45.481Z,11.97
2018-03-11T21:16:18.579Z,8.67
2018-03-11T21:18:49.336Z,7.30
2018-03-11T21:21:19.638Z,7.07
2018-03-11T21:23:51.141Z,8.93
2018-03-11T21:26:25.715Z,9.47
2018-03-11T21:29:05.754Z,7.50
2018-03-11T21:31:38.107Z,6.93
2018-03-11T21:34:26.127Z,5.50
2018-03-11T21:36:55.688Z,5.60
2018-03-11T21:39:31.158Z,9.80
2018-03-11T21:42:07.906Z,6.50
2018-03-11T21:44:43.647Z,5.27
2018-03-11T21:47:18.034Z,5.13
2018-03-11T21:49:51.221Z,4.97
2018-03-11T21:52:27.202Z,3.67
2018-03-11T21:55:00.435Z,5.67
2018-03-11T21:57:39.267Z,3.93
2018-03-11T22:00:12.834Z,5.60
2018-03-11T22:03:10.124Z,3.80
2018-03-11T22:05:48.131Z,3.10
2018-03-11T22:08:26.205Z,4.43
2018-03-11T22:11:02.583Z,2.70
2018-03-11T22:13:38.688Z,4.43
2018-03-11T22:16:11.347Z,3.60
2018-03-11T22:19:02.550Z,3.33
2018-03-11T22:21:32.294Z,5.13
2018-03-11T22:24:04.978Z,3.17
2018-03-11T22:26:38.482Z,5.23
2018-03-11T22:29:10.752Z,5.60
2018-03-11T22:31:48.622Z,3.73
2018-03-11T22:37:29.525Z,4.67
2018-03-11T22:40:05.003Z,5.47
2018-03-11T22:42:42.165Z,3.90
2018-03-11T22:45:13.970Z,3.90
2018-03-11T22:47:49.449Z,4.00
2018-03-11T22:50:43.383Z,4.80
2018-03-11T22:53:13.811Z,5.63
2018-03-11T22:55:44.771Z,4.37
2018-03-11T22:58:14.752Z,3.63
2018-03-11T23:00:47.944Z,4.23
2018-03-11T23:06:25.318Z,7.60
2018-03-11T23:08:59.635Z,6.40
2018-03-11T23:11:35.921Z,5.77
2018-03-11T23:14:18.605Z,5.73
2018-03-11T23:16:52.215Z,3.07
2018-03-11T23:19:51.370Z,4.90
2018-03-11T23:22:29.296Z,3.67
2018-03-11T23:25:03.573Z,3.60
2018-03-11T23:27:42.224Z,8.60
2018-03-11T23:30:16.707Z,4.93
2018-03-11T23:32:46.602Z,7.27
2018-03-11T23:38:52.295Z,5.03
2018-03-11T23:41:37.046Z,7.73
2018-03-11T23:44:11.283Z,3.50
2018-03-11T23:46:46.574Z,5.87
2018-03-11T23:49:21.799Z,5.37
2018-03-11T23:51:51.313Z,9.20
2018-03-11T23:54:27.950Z,3.50
2018-03-11T23:56:58.295Z,4.50
2018-03-11T23:59:33.619Z,7.57
